DTRMO EDXW-EDLP
Flight info
| Callsign | DTRMO |
|---|---|
| Flight time | N/A |
| Altitude | 9000 |
| Route | OLDIP1A OLDIP DCT BADOS DCT OMWEG/N0229F080 Y348 ELSOB/N0225F070 N850 WRB WRB6H |
| Aircraft | C404/L-SDFR/C |
Departure
| Time | 2026-04-20 18:23 |
|---|---|
| Airport | Westerland Sylt Airport (EDXW) |
Arrival
| Time | N/A |
|---|---|
| Airport | Paderborn Lippstadt Airport (EDLP) |
| Time | Latitude | Longitude | Altitude | Speed | Heading |
|---|---|---|---|---|---|
| 2026-04-20 18:01 | 54.91251 | 8.32517 | 21 ft | 0 kts | 243° |
| 2026-04-20 18:17 | 54.91232 | 8.32519 | 21 ft | 9 kts | 142° |
| 2026-04-20 18:17 | 54.91187 | 8.32581 | 21 ft | 9 kts | 140° |
| 2026-04-20 18:17 | 54.91138 | 8.32633 | 21 ft | 8 kts | 155° |
| 2026-04-20 18:18 | 54.91088 | 8.32728 | 21 ft | 13 kts | 110° |
| 2026-04-20 18:18 | 54.91058 | 8.32876 | 27 ft | 13 kts | 112° |
| 2026-04-20 18:18 | 54.91012 | 8.33025 | 23 ft | 15 kts | 99° |
| 2026-04-20 18:18 | 54.91062 | 8.33176 | 20 ft | 16 kts | 21° |
| 2026-04-20 18:19 | 54.91183 | 8.33182 | 25 ft | 26 kts | 1° |
| 2026-04-20 18:19 | 54.91315 | 8.33230 | 24 ft | 19 kts | 26° |
| 2026-04-20 18:19 | 54.91428 | 8.33227 | 25 ft | 14 kts | 321° |
| 2026-04-20 18:19 | 54.91511 | 8.33177 | 26 ft | 12 kts | 4° |
| 2026-04-20 18:20 | 54.91607 | 8.33181 | 30 ft | 18 kts | 4° |
| 2026-04-20 18:20 | 54.91705 | 8.33181 | 33 ft | 10 kts | 357° |
| 2026-04-20 18:20 | 54.91758 | 8.33201 | 34 ft | 6 kts | 65° |
| 2026-04-20 18:20 | 54.91751 | 8.33264 | 34 ft | 5 kts | 113° |
| 2026-04-20 18:21 | 54.91734 | 8.33330 | 36 ft | 5 kts | 113° |
| 2026-04-20 18:21 | 54.91722 | 8.33380 | 37 ft | 8 kts | 112° |
| 2026-04-20 18:21 | 54.91691 | 8.33516 | 37 ft | 13 kts | 111° |
| 2026-04-20 18:21 | 54.91652 | 8.33637 | 36 ft | 9 kts | 148° |
| 2026-04-20 18:22 | 54.91647 | 8.33641 | 36 ft | 0 kts | 147° |
| 2026-04-20 18:22 | 54.91647 | 8.33642 | 36 ft | 1 kts | 147° |
| 2026-04-20 18:22 | 54.91488 | 8.33844 | 33 ft | 56 kts | 144° |
| 2026-04-20 18:22 | 54.91063 | 8.34388 | 115 ft | 87 kts | 132° |
| 2026-04-20 18:23 | 54.90530 | 8.35070 | 365 ft | 100 kts | 137° |
| 2026-04-20 18:23 | 54.89925 | 8.35770 | 626 ft | 109 kts | 137° |
| 2026-04-20 18:23 | 54.89280 | 8.36574 | 845 ft | 118 kts | 137° |
| 2026-04-20 18:23 | 54.88586 | 8.37396 | 1113 ft | 124 kts | 137° |
| 2026-04-20 18:24 | 54.87906 | 8.38233 | 1499 ft | 119 kts | 136° |
| 2026-04-20 18:24 | 54.87225 | 8.39057 | 1814 ft | 124 kts | 137° |
| 2026-04-20 18:24 | 54.86462 | 8.40029 | 2048 ft | 144 kts | 135° |
| 2026-04-20 18:24 | 54.85647 | 8.41098 | 2463 ft | 148 kts | 135° |
| 2026-04-20 18:25 | 54.84806 | 8.42174 | 2899 ft | 151 kts | 136° |
| 2026-04-20 18:25 | 54.83885 | 8.43099 | 3342 ft | 153 kts | 140° |
| 2026-04-20 18:25 | 54.82991 | 8.44121 | 3719 ft | 156 kts | 138° |
| 2026-04-20 18:25 | 54.82076 | 8.45109 | 4188 ft | 152 kts | 139° |
| 2026-04-20 18:26 | 54.81189 | 8.46050 | 4682 ft | 147 kts | 137° |
| 2026-04-20 18:26 | 54.80336 | 8.47042 | 5086 ft | 147 kts | 132° |
| 2026-04-20 18:26 | 54.79592 | 8.48262 | 5352 ft | 156 kts | 133° |
| 2026-04-20 18:26 | 54.78753 | 8.49465 | 5741 ft | 154 kts | 134° |
| 2026-04-20 18:27 | 54.77897 | 8.50617 | 6099 ft | 157 kts | 135° |
| 2026-04-20 18:27 | 54.77000 | 8.51713 | 6488 ft | 158 kts | 138° |
| 2026-04-20 18:27 | 54.76409 | 8.52434 | 6781 ft | 156 kts | 137° |
| 2026-04-20 18:27 | 54.75231 | 8.53941 | 7260 ft | 157 kts | 136° |
| 2026-04-20 18:28 | 54.74644 | 8.54666 | 7524 ft | 158 kts | 139° |
| 2026-04-20 18:28 | 54.73725 | 8.55744 | 7871 ft | 160 kts | 139° |
| 2026-04-20 18:28 | 54.72513 | 8.57223 | 8357 ft | 161 kts | 138° |
| 2026-04-20 18:28 | 54.71885 | 8.57971 | 8598 ft | 161 kts | 138° |
| 2026-04-20 18:29 | 54.70968 | 8.59119 | 8897 ft | 164 kts | 136° |
| 2026-04-20 18:29 | 54.70015 | 8.60350 | 8937 ft | 180 kts | 139° |
| 2026-04-20 18:29 | 54.68950 | 8.61619 | 8940 ft | 191 kts | 140° |
| 2026-04-20 18:29 | 54.67839 | 8.62951 | 8940 ft | 196 kts | 139° |
| 2026-04-20 18:30 | 54.66713 | 8.64322 | 8940 ft | 199 kts | 139° |
| 2026-04-20 18:30 | 54.65577 | 8.65709 | 8941 ft | 201 kts | 139° |
| 2026-04-20 18:30 | 54.64431 | 8.67108 | 8942 ft | 202 kts | 139° |
| 2026-04-20 18:30 | 54.63283 | 8.68507 | 8939 ft | 202 kts | 139° |
| 2026-04-20 18:31 | 54.62131 | 8.69909 | 8944 ft | 203 kts | 139° |
| 2026-04-20 18:31 | 54.61087 | 8.71499 | 8939 ft | 199 kts | 129° |
| 2026-04-20 18:31 | 54.60139 | 8.73198 | 8941 ft | 199 kts | 129° |
| 2026-04-20 18:31 | 54.59169 | 8.74911 | 8942 ft | 200 kts | 129° |
| 2026-04-20 18:32 | 54.58195 | 8.76617 | 8940 ft | 200 kts | 130° |
| 2026-04-20 18:32 | 54.57220 | 8.78322 | 8942 ft | 200 kts | 130° |
| 2026-04-20 18:32 | 54.56246 | 8.80033 | 8947 ft | 200 kts | 129° |
| 2026-04-20 18:32 | 54.55287 | 8.81713 | 9076 ft | 195 kts | 129° |
| 2026-04-20 18:33 | 54.54370 | 8.83342 | 9308 ft | 187 kts | 129° |
| 2026-04-20 18:33 | 54.53430 | 8.84970 | 9259 ft | 194 kts | 130° |
| 2026-04-20 18:33 | 54.52478 | 8.86634 | 9262 ft | 196 kts | 130° |
| 2026-04-20 18:33 | 54.51519 | 8.88307 | 9258 ft | 196 kts | 130° |
| 2026-04-20 18:34 | 54.50560 | 8.89980 | 9265 ft | 197 kts | 130° |
| 2026-04-20 18:34 | 54.49589 | 8.91653 | 9266 ft | 198 kts | 133° |
| 2026-04-20 18:34 | 54.48352 | 8.92771 | 9266 ft | 208 kts | 159° |
| 2026-04-20 18:34 | 54.46915 | 8.93219 | 9264 ft | 211 kts | 165° |
| 2026-04-20 18:35 | 54.45473 | 8.93638 | 9263 ft | 210 kts | 162° |
| 2026-04-20 18:35 | 54.44049 | 8.94150 | 9259 ft | 209 kts | 161° |
| 2026-04-20 18:35 | 54.42778 | 8.94625 | 9260 ft | 209 kts | 161° |
| 2026-04-20 18:35 | 54.41359 | 8.95148 | 9262 ft | 209 kts | 161° |
| 2026-04-20 18:36 | 54.39934 | 8.95665 | 9253 ft | 209 kts | 162° |
| 2026-04-20 18:36 | 54.38511 | 8.96182 | 9261 ft | 209 kts | 162° |
| 2026-04-20 18:36 | 54.37086 | 8.96699 | 9257 ft | 209 kts | 162° |
| 2026-04-20 18:36 | 54.35661 | 8.97216 | 9247 ft | 209 kts | 162° |
| 2026-04-20 18:37 | 54.34237 | 8.97733 | 9255 ft | 209 kts | 161° |
| 2026-04-20 18:37 | 54.32812 | 8.98249 | 9256 ft | 209 kts | 162° |
| 2026-04-20 18:37 | 54.31388 | 8.98764 | 9256 ft | 209 kts | 162° |
| 2026-04-20 18:37 | 54.29965 | 8.99280 | 9251 ft | 209 kts | 162° |
| 2026-04-20 18:38 | 54.28540 | 8.99796 | 9256 ft | 209 kts | 162° |
| 2026-04-20 18:38 | 54.27115 | 9.00311 | 9254 ft | 209 kts | 162° |
| 2026-04-20 18:38 | 54.25697 | 9.00820 | 9326 ft | 206 kts | 162° |
| 2026-04-20 18:38 | 54.24329 | 9.01413 | 9295 ft | 206 kts | 156° |
| 2026-04-20 18:39 | 54.22904 | 9.01744 | 9427 ft | 206 kts | 171° |
| 2026-04-20 18:39 | 54.21487 | 9.01989 | 9481 ft | 203 kts | 163° |
| 2026-04-20 18:39 | 54.20974 | 9.02182 | 9491 ft | 202 kts | 159° |
| 2026-04-20 18:40 | 54.19634 | 9.02922 | 9364 ft | 207 kts | 155° |
| 2026-04-20 18:40 | 54.18205 | 9.03482 | 9341 ft | 209 kts | 161° |
| 2026-04-20 18:40 | 54.16824 | 9.04057 | 9522 ft | 200 kts | 159° |
| 2026-04-20 18:40 | 54.15498 | 9.04731 | 9591 ft | 199 kts | 155° |